Time;durP1;ratioP1;P1;durP2;ratioP2;P2;SDS_P1;SDS_P2;PMS_P1;PMS_P2;Temp;Humidity;BMP_temperature;BMP_pressure;BME280_temperature;BME280_humidity;BME280_pressure;Samples;Min_cycle;Max_cycle;Signal;HPM_P1;HPM_P2
2022/12/14 00:02:11;;;;;;;27.97;13.57;;;;;;;-4.78;90.21;100479.25;5092779;28;20505;-67
2022/12/14 00:04:38;;;;;;;21.80;10.10;;;;;;;-4.82;91.12;100484.09;5091738;28;20460;-67
2022/12/14 00:07:04;;;;;;;33.30;11.30;;;;;;;-4.79;90.12;100466.22;5090913;28;20456;-66
2022/12/14 00:09:31;;;;;;;22.03;9.93;;;;;;;-4.69;89.76;100466.59;5092506;28;20542;-66
2022/12/14 00:11:57;;;;;;;20.60;9.23;;;;;;;-4.78;89.46;100462.53;5095434;28;22206;-66
2022/12/14 00:14:24;;;;;;;20.20;9.70;;;;;;;-4.92;90.10;100473.09;5095227;28;20547;-66
2022/12/14 00:16:52;;;;;;;21.43;10.43;;;;;;;-4.94;90.43;100472.50;5095163;28;20527;-67
2022/12/14 00:19:19;;;;;;;22.93;11.43;;;;;;;-5.01;89.91;100461.13;5096332;28;20454;-66
2022/12/14 00:21:45;;;;;;;22.60;9.90;;;;;;;-4.86;90.32;100459.09;5094950;28;20452;-66
2022/12/14 00:24:12;;;;;;;25.33;9.90;;;;;;;-4.84;89.82;100457.06;5094721;28;20602;-67
2022/12/14 00:26:39;;;;;;;21.80;9.82;;;;;;;-4.89;89.38;100451.59;5095853;28;20531;-67
2022/12/14 00:29:05;;;;;;;18.07;8.97;;;;;;;-5.02;90.13;100454.22;5096164;28;20209;-67
2022/12/14 00:31:32;;;;;;;21.30;8.83;;;;;;;-5.10;90.65;100451.75;5095068;28;20491;-67
2022/12/14 00:34:01;;;;;;;21.43;9.40;;;;;;;-5.01;90.68;100450.56;5095944;28;20571;-67
2022/12/14 00:36:30;;;;;;;17.13;8.40;;;;;;;-4.94;89.77;100446.09;5094947;28;20468;-67
2022/12/14 00:38:56;;;;;;;22.33;9.57;;;;;;;-5.05;90.69;100446.69;5095860;28;20898;-67
2022/12/14 00:41:23;;;;;;;25.20;11.17;;;;;;;-5.00;90.26;100444.28;5095053;28;20539;-67
2022/12/14 00:43:49;;;;;;;24.57;11.97;;;;;;;-5.08;90.28;100441.84;5095823;28;20474;-68
2022/12/14 00:46:16;;;;;;;17.50;7.67;;;;;;;-5.15;90.82;100436.53;5094787;28;20547;-68
2022/12/14 00:48:43;;;;;;;23.73;10.07;;;;;;;-5.14;89.38;100442.63;5095774;28;20472;-68
2022/12/14 00:51:13;;;;;;;26.73;9.90;;;;;;;-5.10;89.53;100438.56;5094582;28;20552;-68
2022/12/14 00:53:40;;;;;;;16.37;9.20;;;;;;;-5.20;89.55;100443.44;5095611;28;20229;-68
2022/12/14 00:56:07;;;;;;;23.00;8.97;;;;;;;-5.20;88.42;100440.78;5094521;28;20452;-68
2022/12/14 00:58:34;;;;;;;24.10;10.07;;;;;;;-5.24;88.56;100439.56;5095246;28;20934;-68
2022/12/14 01:01:02;;;;;;;26.83;10.40;;;;;;;-5.19;87.79;100439.78;5094089;28;21025;-67
2022/12/14 01:03:29;;;;;;;23.87;9.60;;;;;;;-5.18;87.92;100447.50;5094086;28;20476;-68
2022/12/14 01:05:56;;;;;;;26.17;10.02;;;;;;;-5.25;87.43;100437.94;5094134;28;20560;-68
2022/12/14 01:08:24;;;;;;;18.80;8.20;;;;;;;-5.30;87.53;100437.75;5096360;28;20850;-67
2022/12/14 01:10:50;;;;;;;18.20;9.30;;;;;;;-5.36;88.04;100426.97;5094512;28;20461;-68
2022/12/14 01:13:17;;;;;;;23.23;7.97;;;;;;;-5.33;88.29;100431.03;5095132;28;20571;-68
2022/12/14 01:15:44;;;;;;;16.43;8.23;;;;;;;-5.36;87.76;100440.19;5093781;28;20207;-68
2022/12/14 01:18:10;;;;;;;26.20;11.53;;;;;;;-5.40;87.44;100424.91;5095211;28;20498;-67
2022/12/14 01:20:37;;;;;;;26.48;9.23;;;;;;;-5.46;87.55;100420.44;5092484;28;20456;-67
2022/12/14 01:23:04;;;;;;;39.78;9.95;;;;;;;-5.54;87.58;100420.63;5094795;28;20226;-68
2022/12/14 01:25:32;;;;;;;25.55;10.80;;;;;;;-5.65;88.11;100427.31;5092191;28;20198;-67
2022/12/14 01:27:58;;;;;;;21.87;10.20;;;;;;;-5.66;88.42;100431.78;5095038;28;20297;-68
2022/12/14 01:30:25;;;;;;;22.63;10.38;;;;;;;-5.67;89.88;100421.41;5093827;28;20539;-68
2022/12/14 01:32:52;;;;;;;26.80;11.43;;;;;;;-5.55;90.87;100414.53;5094481;28;20714;-68
2022/12/14 01:35:18;;;;;;;20.90;9.73;;;;;;;-5.47;90.76;100424.91;5093946;28;20328;-68
2022/12/14 01:37:45;;;;;;;21.45;10.20;;;;;;;-5.60;91.37;100419.59;5093768;28;20202;-68
2022/12/14 01:40:12;;;;;;;20.05;9.27;;;;;;;-5.49;90.85;100416.41;5094012;28;20208;-68
2022/12/14 01:42:40;;;;;;;27.17;10.90;;;;;;;-5.57;89.90;100413.94;5094667;28;20261;-68
2022/12/14 01:45:18;;;;;;;23.93;9.53;;;;;;;-5.62;90.64;100416.38;5092710;28;20210;-68
2022/12/14 01:47:49;;;;;;;23.65;10.05;;;;;;;-5.49;90.42;100413.75;5093512;28;20585;-68
2022/12/14 01:50:22;;;;;;;22.73;10.55;;;;;;;-5.44;91.07;100415.81;5094623;28;20296;-68
2022/12/14 01:52:53;;;;;;;21.80;10.30;;;;;;;-5.54;91.01;100408.25;5093070;28;20262;-68
2022/12/14 01:55:22;;;;;;;28.65;9.73;;;;;;;-5.57;91.63;100413.94;5094471;28;20464;-68
2022/12/14 01:57:56;;;;;;;22.63;10.05;;;;;;;-5.51;90.97;100404.41;5093298;28;20209;-69
2022/12/14 02:00:23;;;;;;;23.45;10.60;;;;;;;-5.47;89.65;100409.09;5094385;28;20186;-68
2022/12/14 02:02:55;;;;;;;22.92;8.77;;;;;;;-5.47;89.43;100408.28;5092283;28;20304;-69
2022/12/14 02:05:24;;;;;;;21.97;10.40;;;;;;;-5.44;89.53;100408.69;5094333;28;20198;-69
2022/12/14 02:07:54;;;;;;;23.33;9.10;;;;;;;-5.42;89.58;100408.47;5093169;28;20548;-69
2022/12/14 02:10:23;;;;;;;26.33;9.67;;;;;;;-5.36;89.55;100402.38;5094206;28;20523;-68
2022/12/14 02:12:58;;;;;;;22.77;9.57;;;;;;;-5.37;90.43;100396.31;5093055;28;20476;-69
2022/12/14 02:15:25;;;;;;;23.63;9.00;;;;;;;-5.44;90.53;100398.13;5093801;28;20420;-69
2022/12/14 02:17:52;;;;;;;26.43;10.57;;;;;;;-5.38;90.67;100399.16;5092975;28;20448;-69
2022/12/14 02:20:21;;;;;;;23.03;10.70;;;;;;;-5.33;91.06;100399.34;5093605;28;20440;-68
2022/12/14 02:23:21;;;;;;;27.55;9.98;;;;;;;-5.27;90.01;100398.53;5092155;28;20584;-69
2022/12/14 02:26:19;;;;;;;18.97;9.50;;;;;;;-5.28;90.18;100394.28;5093902;28;20204;-68
2022/12/14 02:29:18;;;;;;;16.00;8.77;;;;;;;-5.14;89.90;100400.38;5092949;28;20451;-69
2022/12/14 02:31:54;;;;;;;22.98;9.15;;;;;;;-5.14;88.92;100390.63;5080681;28;20913;-68
2022/12/14 02:34:32;;;;;;;26.20;11.50;;;;;;;-5.15;89.21;100390.84;5093691;28;20202;-69
2022/12/14 02:37:09;;;;;;;22.13;10.07;;;;;;;-5.15;89.24;100398.75;5091806;28;20293;-69
2022/12/14 02:39:45;;;;;;;22.75;9.70;;;;;;;-5.14;89.77;100392.47;5093756;28;20444;-69
2022/12/14 02:42:14;;;;;;;20.13;9.77;;;;;;;-5.10;89.29;100398.97;5092842;28;20222;-69
2022/12/14 02:44:52;;;;;;;28.53;10.00;;;;;;;-5.13;89.45;100392.28;5093335;28;20436;-69
2022/12/14 02:47:26;;;;;;;20.67;11.77;;;;;;;-5.13;90.37;100394.91;5092586;28;20539;-69
2022/12/14 02:50:02;;;;;;;20.47;9.60;;;;;;;-5.14;90.91;100390.63;5092183;28;20239;-69
2022/12/14 02:52:39;;;;;;;20.17;10.50;;;;;;;-5.04;89.68;100397.34;5092130;28;20487;-69
2022/12/14 02:55:13;;;;;;;19.40;9.47;;;;;;;-5.08;90.05;100389.84;5093492;28;20559;-69
2022/12/14 02:57:45;;;;;;;30.27;11.77;;;;;;;-5.07;89.09;100380.88;5091631;28;20884;-69
2022/12/14 03:00:14;;;;;;;25.03;11.00;;;;;;;-5.13;90.30;100383.53;5092304;28;20456;-68
2022/12/14 03:02:43;;;;;;;22.03;10.77;;;;;;;-5.15;90.60;100381.09;5093310;28;20460;-68
2022/12/14 03:05:11;;;;;;;23.35;9.35;;;;;;;-5.11;90.13;100381.50;5091396;28;20487;-68
2022/12/14 03:07:42;;;;;;;23.07;10.30;;;;;;;-5.19;90.54;100373.78;5093168;28;20230;-68
2022/12/14 03:10:17;;;;;;;18.63;9.57;;;;;;;-5.08;90.41;100387.19;5092220;28;20888;-68
2022/12/14 03:12:48;;;;;;;19.13;9.47;;;;;;;-5.17;90.24;100382.31;5093027;28;21002;-68
2022/12/14 03:15:19;;;;;;;23.43;10.20;;;;;;;-5.15;89.62;100377.66;5091994;28;20444;-68
2022/12/14 03:17:51;;;;;;;23.67;10.57;;;;;;;-5.08;89.01;100378.47;5093332;28;20429;-68
2022/12/14 03:20:21;;;;;;;22.10;11.20;;;;;;;-5.02;88.65;100377.63;5092144;28;20544;-68
2022/12/14 03:22:54;;;;;;;28.00;12.40;;;;;;;-5.14;88.66;100376.63;5093041;28;20556;-68
2022/12/14 03:25:26;;;;;;;24.23;10.57;;;;;;;-5.24;88.81;100374.38;5091561;28;20461;-68
2022/12/14 03:27:59;;;;;;;27.40;10.53;;;;;;;-5.38;88.47;100362.22;5093535;28;20452;-68
2022/12/14 03:30:30;;;;;;;19.37;11.10;;;;;;;-5.37;89.65;100361.19;5091755;28;20559;-68
2022/12/14 03:33:04;;;;;;;20.10;9.40;;;;;;;-5.35;90.37;100365.25;5092083;28;20558;-68
2022/12/14 03:35:34;;;;;;;20.37;10.13;;;;;;;-5.26;89.24;100370.34;5093132;28;20524;-68
2022/12/14 03:38:07;;;;;;;24.00;11.77;;;;;;;-5.29;89.11;100362.81;5092125;28;20543;-68
2022/12/14 03:40:39;;;;;;;29.77;11.67;;;;;;;-5.40;88.90;100359.78;5091958;28;20237;-68
2022/12/14 03:43:13;;;;;;;32.67;12.67;;;;;;;-5.37;89.13;100351.44;5093677;28;20496;-69
2022/12/14 03:45:48;;;;;;;19.37;10.30;;;;;;;-5.37;89.22;100354.06;5097093;28;20431;-68
2022/12/14 03:48:23;;;;;;;25.63;10.30;;;;;;;-5.37;88.68;100351.44;5096084;28;20555;-68
2022/12/14 03:50:52;;;;;;;28.93;11.37;;;;;;;-5.38;87.80;100349.81;5096023;28;20474;-68
2022/12/14 03:53:25;;;;;;;25.60;10.80;;;;;;;-5.36;88.41;100347.81;5095482;28;20555;-68
2022/12/14 03:56:03;;;;;;;22.53;10.87;;;;;;;-5.35;87.90;100341.50;5096734;28;20463;-68
2022/12/14 03:58:38;;;;;;;27.40;11.13;;;;;;;-5.35;87.75;100338.88;5095247;28;20906;-68
2022/12/14 04:01:12;;;;;;;26.90;12.50;;;;;;;-5.33;87.93;100328.91;5095735;28;20563;-68
2022/12/14 04:03:48;;;;;;;19.73;10.90;;;;;;;-5.36;88.17;100326.69;5095691;28;20214;-67
2022/12/14 04:06:23;;;;;;;23.03;11.33;;;;;;;-5.25;89.87;100327.09;5096589;28;20416;-67
2022/12/14 04:08:57;;;;;;;21.23;9.63;;;;;;;-5.21;91.24;100323.03;5095495;28;20900;-66
2022/12/14 04:20:00;;;;;;;27.43;12.00;;;;;;;-5.10;90.36;100319.75;5096244;28;20662;-66
2022/12/14 04:22:33;;;;;;;30.17;13.37;;;;;;;-5.09;91.57;100316.09;5077640;28;20880;-67
2022/12/14 04:27:53;;;;;;;21.80;10.50;;;;;;;-5.04;91.59;100321.59;5078262;28;20460;-67
2022/12/14 04:30:19;;;;;;;25.30;11.30;;;;;;;-5.00;91.36;100320.16;5096091;28;20447;-67
2022/12/14 04:32:50;;;;;;;25.70;11.40;;;;;;;-4.97;91.56;100319.75;5094911;28;20993;-68
2022/12/14 04:35:22;;;;;;;24.47;11.10;;;;;;;-4.98;90.86;100301.47;5094822;28;20570;-68
2022/12/14 04:37:52;;;;;;;29.60;12.80;;;;;;;-4.92;90.34;100309.38;5096110;28;20427;-67
2022/12/14 04:40:24;;;;;;;25.30;11.80;;;;;;;-5.00;90.36;100304.31;5094142;28;20458;-67
2022/12/14 04:42:54;;;;;;;28.27;10.90;;;;;;;-4.98;90.72;100301.47;5075748;28;20540;-67
2022/12/14 04:45:25;;;;;;;27.55;12.02;;;;;;;-4.99;90.58;100298.03;5095560;28;20531;-67
2022/12/14 04:47:59;;;;;;;25.17;10.30;;;;;;;-5.04;90.27;100284.63;5094518;28;20628;-67
2022/12/14 04:50:30;;;;;;;22.90;10.90;;;;;;;-5.02;90.44;100276.50;5095799;28;20506;-67
2022/12/14 04:53:02;;;;;;;29.00;11.90;;;;;;;-5.05;89.98;100277.69;5094531;28;20555;-66
2022/12/14 04:55:35;;;;;;;24.67;12.23;;;;;;;-5.08;89.89;100271.03;5094417;28;20911;-66
2022/12/14 04:58:08;;;;;;;22.30;11.40;;;;;;;-4.98;90.45;100270.59;5094699;28;20544;-67
2022/12/14 05:00:41;;;;;;;34.13;13.27;;;;;;;-4.92;89.63;100268.94;5094459;28;20634;-67
2022/12/14 05:03:21;;;;;;;25.02;10.85;;;;;;;-4.94;89.76;100260.44;5095509;28;20835;-67
2022/12/14 05:06:04;;;;;;;27.40;12.27;;;;;;;-4.94;89.41;100265.72;5094507;28;20290;-67
2022/12/14 05:08:51;;;;;;;26.75;11.85;;;;;;;-4.90;89.63;100262.44;5094875;28;20278;-67
2022/12/14 05:11:24;;;;;;;26.10;11.25;;;;;;;-4.91;89.79;100260.84;5075574;28;20278;-68
2022/12/14 05:13:51;;;;;;;24.30;12.65;;;;;;;-4.90;89.68;100256.38;5077359;28;20234;-69
2022/12/14 05:16:20;;;;;;;25.23;10.00;;;;;;;-4.91;89.96;100255.56;5095570;28;20297;-68
2022/12/14 05:18:49;;;;;;;24.57;11.73;;;;;;;-4.96;89.58;100255.34;5094308;28;20443;-67
2022/12/14 05:23:58;;;;;;;22.07;9.50;;;;;;;-4.92;89.95;100261.84;5093348;28;20476;-65
2022/12/14 05:26:25;;;;;;;27.45;13.77;;;;;;;-5.04;88.40;100249.50;5094163;28;20547;-66
2022/12/14 05:28:51;;;;;;;24.83;11.90;;;;;;;-4.99;88.61;100247.84;5093051;28;20661;-65
2022/12/14 05:31:18;;;;;;;26.77;12.33;;;;;;;-4.93;88.48;100248.84;5094206;28;20552;-66
2022/12/14 05:33:45;;;;;;;22.92;11.63;;;;;;;-4.96;89.00;100241.31;5093470;28;21181;-65
2022/12/14 05:36:12;;;;;;;22.73;12.07;;;;;;;-4.92;88.97;100243.34;5094905;28;20289;-65
2022/12/14 05:38:40;;;;;;;28.30;11.40;;;;;;;-4.90;89.60;100246.59;5093440;28;20453;-65
2022/12/14 05:41:06;;;;;;;23.80;11.57;;;;;;;-4.94;89.80;100242.75;5094751;28;20447;-65
2022/12/14 05:43:33;;;;;;;21.52;11.52;;;;;;;-4.98;89.32;100233.63;5093697;28;20471;-66
2022/12/14 05:46:00;;;;;;;26.80;12.17;;;;;;;-4.96;88.84;100236.03;5094372;28;20289;-66
2022/12/14 05:48:27;;;;;;;25.80;12.33;;;;;;;-4.93;87.81;100225.06;5094596;28;20527;-66
2022/12/14 05:50:53;;;;;;;37.50;15.00;;;;;;;-5.08;88.51;100220.88;5093182;28;20551;-65
2022/12/14 05:53:22;;;;;;;36.00;12.60;;;;;;;-5.04;88.46;100210.69;5094278;28;20622;-66
2022/12/14 05:55:49;;;;;;;28.63;11.90;;;;;;;-5.07;88.06;100206.63;5092999;28;20507;-66
2022/12/14 05:58:16;;;;;;;27.20;11.90;;;;;;;-5.01;87.76;100201.53;5094000;28;20293;-66
2022/12/14 06:00:42;;;;;;;30.60;13.30;;;;;;;-5.10;87.22;100208.88;5092038;28;21040;-65
2022/12/14 06:03:09;;;;;;;27.60;12.15;;;;;;;-5.10;87.17;100203.59;5094075;28;20547;-66
2022/12/14 06:05:36;;;;;;;21.00;10.30;;;;;;;-5.14;86.87;100197.91;5091839;28;20569;-65
2022/12/14 06:08:02;;;;;;;29.63;12.70;;;;;;;-5.16;87.55;100204.44;5094223;28;20440;-65
2022/12/14 06:10:30;;;;;;;28.50;10.80;;;;;;;-5.13;87.85;100196.13;5093370;28;20544;-65
2022/12/14 06:12:57;;;;;;;35.95;14.25;;;;;;;-5.14;89.09;100202.38;5093829;28;20230;-66
2022/12/14 06:15:23;;;;;;;20.70;10.70;;;;;;;-5.03;89.13;100207.03;5092592;28;20230;-66
2022/12/14 06:17:50;;;;;;;30.30;12.88;;;;;;;-5.04;89.15;100200.13;5094148;28;20451;-66
2022/12/14 06:20:17;;;;;;;29.88;11.50;;;;;;;-5.00;89.17;100197.88;5092087;28;20281;-65
2022/12/14 06:22:43;;;;;;;21.57;11.80;;;;;;;-5.02;89.08;100200.72;5093805;28;20230;-66
2022/12/14 06:25:10;;;;;;;22.13;11.47;;;;;;;-5.05;87.68;100195.84;5091574;28;20953;-66
2022/12/14 06:27:38;;;;;;;25.27;10.80;;;;;;;-5.10;87.67;100204.41;5093882;28;20826;-67
2022/12/14 06:30:06;;;;;;;32.92;13.88;;;;;;;-5.15;87.58;100200.78;5093056;28;20882;-67
2022/12/14 06:32:32;;;;;;;28.33;12.73;;;;;;;-5.14;87.05;100190.00;5093827;28;20573;-67
2022/12/14 06:34:59;;;;;;;31.20;13.10;;;;;;;-5.13;86.70;100189.00;5091810;28;20305;-67
2022/12/14 06:37:25;;;;;;;24.90;12.53;;;;;;;-5.26;87.09;100193.50;5090971;28;20898;-68
2022/12/14 06:39:52;;;;;;;20.67;10.73;;;;;;;-5.30;87.72;100194.94;5092746;28;20503;-68
2022/12/14 06:42:19;;;;;;;27.55;11.82;;;;;;;-5.38;86.98;100190.69;5093202;28;20460;-68
2022/12/14 06:44:47;;;;;;;29.87;11.20;;;;;;;-5.38;87.98;100186.22;5091594;28;20224;-67
2022/12/14 06:47:13;;;;;;;24.73;11.80;;;;;;;-5.30;87.18;100182.53;5092673;28;20543;-67
2022/12/14 06:49:40;;;;;;;26.53;12.57;;;;;;;-5.37;87.53;100185.19;5091815;28;20213;-67
2022/12/14 06:52:07;;;;;;;22.30;10.47;;;;;;;-5.27;87.42;100183.94;5092455;28;20495;-67
2022/12/14 06:54:33;;;;;;;26.20;13.90;;;;;;;-5.34;88.04;100182.16;5093463;28;20591;-67
2022/12/14 06:57:00;;;;;;;27.00;11.37;;;;;;;-5.35;87.84;100183.16;5088548;28;20831;-67
2022/12/14 06:59:27;;;;;;;23.42;13.30;;;;;;;-5.41;87.37;100178.69;5089592;28;20464;-68
2022/12/14 07:01:55;;;;;;;29.00;12.38;;;;;;;-5.48;87.00;100171.84;5092626;28;20237;-67
2022/12/14 07:04:21;;;;;;;23.95;12.63;;;;;;;-5.36;86.64;100176.28;5073394;28;20199;-67
2022/12/14 07:06:48;;;;;;;32.53;11.63;;;;;;;-5.44;87.18;100168.56;5082620;28;20570;-67
2022/12/14 07:09:14;;;;;;;21.98;10.23;;;;;;;-5.44;87.64;100173.06;5094785;28;20523;-67
2022/12/14 07:11:41;;;;;;;26.07;11.60;;;;;;;-5.39;86.99;100158.22;5092046;28;20754;-66
2022/12/14 07:14:10;;;;;;;30.98;14.75;;;;;;;-5.40;87.28;100164.50;5089707;28;20486;-69
2022/12/14 07:16:37;;;;;;;30.83;14.73;;;;;;;-5.37;87.32;100166.72;5092169;28;20293;-69
2022/12/14 07:19:05;;;;;;;27.07;13.67;;;;;;;-5.38;87.10;100170.38;5098436;28;20198;-67
2022/12/14 07:21:32;;;;;;;24.10;13.05;;;;;;;-5.36;87.26;100163.09;5099941;28;20539;-67
2022/12/14 07:24:00;;;;;;;19.98;11.00;;;;;;;-5.38;87.70;100157.19;5097414;28;20798;-68
2022/12/14 07:26:27;;;;;;;27.35;14.00;;;;;;;-5.34;88.74;100163.66;5099944;28;20308;-68
2022/12/14 07:28:54;;;;;;;24.80;10.85;;;;;;;-5.24;89.20;100157.16;5098897;28;20212;-67
2022/12/14 07:31:23;;;;;;;27.20;11.20;;;;;;;-5.24;89.77;100154.50;5099452;28;20708;-69
2022/12/14 07:33:53;;;;;;;32.47;13.00;;;;;;;-5.25;88.72;100148.41;5097334;28;20566;-68
2022/12/14 07:36:22;;;;;;;26.47;11.60;;;;;;;-5.32;88.69;100151.06;5095619;28;20488;-68
2022/12/14 07:38:50;;;;;;;25.70;11.40;;;;;;;-5.32;87.92;100152.91;5099792;28;20547;-68
2022/12/14 07:41:19;;;;;;;22.50;10.80;;;;;;;-5.20;87.88;100147.78;5098512;28;20968;-68
2022/12/14 07:43:47;;;;;;;18.73;9.38;;;;;;;-5.28;88.27;100153.31;5098303;28;21077;-68
2022/12/14 07:46:15;;;;;;;32.55;11.15;;;;;;;-5.25;87.62;100151.06;5099411;28;20655;-68
2022/12/14 07:48:44;;;;;;;30.03;10.27;;;;;;;-5.24;89.01;100146.59;5100094;28;20202;-69
2022/12/14 07:51:13;;;;;;;27.65;11.40;;;;;;;-5.18;90.17;100143.09;5098814;28;20543;-69
2022/12/14 07:53:42;;;;;;;27.13;11.20;;;;;;;-5.08;90.46;100139.03;5098298;28;20248;-68
2022/12/14 07:56:12;;;;;;;16.33;10.00;;;;;;;-5.01;90.79;100138.97;5097787;28;20475;-67
2022/12/14 07:58:39;;;;;;;27.70;10.18;;;;;;;-4.99;91.04;100136.94;5098663;28;20301;-67
2022/12/14 08:01:11;;;;;;;21.57;10.93;;;;;;;-4.98;90.35;100138.56;5098849;28;20234;-68
2022/12/14 08:03:38;;;;;;;22.23;10.27;;;;;;;-4.91;90.21;100139.34;5099142;28;20543;-67
2022/12/14 08:06:06;;;;;;;25.67;11.68;;;;;;;-4.85;89.17;100145.63;5097479;28;20727;-67
2022/12/14 08:08:33;;;;;;;27.23;10.30;;;;;;;-4.89;89.40;100132.03;5099370;28;20213;-68
2022/12/14 08:11:02;;;;;;;25.50;11.73;;;;;;;-4.91;88.48;100133.28;5096677;28;20324;-67
2022/12/14 08:13:29;;;;;;;29.53;12.80;;;;;;;-4.91;88.26;100139.34;5094231;28;20654;-67
2022/12/14 08:15:55;;;;;;;25.50;12.20;;;;;;;-4.93;87.65;100137.94;5099391;28;20916;-67
2022/12/14 08:18:23;;;;;;;27.53;12.30;;;;;;;-4.92;86.68;100142.19;5098428;28;20464;-66
2022/12/14 08:20:50;;;;;;;22.33;10.20;;;;;;;-4.87;87.01;100137.91;5099432;28;20443;-66
2022/12/14 08:23:17;;;;;;;40.45;12.20;;;;;;;-4.80;87.42;100131.78;5097844;28;20488;-69
2022/12/14 08:25:44;;;;;;;23.07;11.10;;;;;;;-4.79;88.19;100136.03;5099465;28;20204;-69
2022/12/14 08:28:12;;;;;;;28.77;12.13;;;;;;;-4.69;88.02;100131.09;5098393;28;20555;-65
2022/12/14 08:30:38;;;;;;;26.83;11.60;;;;;;;-4.69;87.73;100120.53;5096243;28;20447;-67
2022/12/14 08:33:05;;;;;;;18.33;9.10;;;;;;;-4.67;89.00;100118.50;5094787;28;20484;-67
2022/12/14 08:35:32;;;;;;;24.80;9.87;;;;;;;-4.55;89.88;100127.38;5095025;28;20877;-67
2022/12/14 08:37:59;;;;;;;19.10;10.63;;;;;;;-4.48;89.61;100128.13;5094705;28;20444;-68
2022/12/14 08:40:25;;;;;;;28.53;9.57;;;;;;;-4.38;89.51;100132.97;5095991;28;20445;-67
2022/12/14 08:42:52;;;;;;;42.42;13.50;;;;;;;-4.32;90.08;100121.50;5091608;28;20984;-69
2022/12/14 08:45:20;;;;;;;26.93;12.10;;;;;;;-4.21;89.83;100112.06;5095542;28;20702;-68
2022/12/14 08:47:47;;;;;;;28.05;11.65;;;;;;;-4.15;89.31;100111.22;5094836;28;20492;-69
2022/12/14 08:50:14;;;;;;;23.43;11.70;;;;;;;-4.13;89.54;100115.25;5095569;28;20202;-68
2022/12/14 08:52:40;;;;;;;27.47;11.20;;;;;;;-4.08;89.61;100101.38;5093591;28;20498;-71
2022/12/14 08:55:08;;;;;;;20.23;10.90;;;;;;;-4.05;89.45;100108.88;5091937;28;20571;-69
2022/12/14 08:57:34;;;;;;;24.75;9.73;;;;;;;-3.98;89.65;100114.94;5092740;28;20488;-68
2022/12/14 09:00:01;;;;;;;23.80;10.20;;;;;;;-3.91;89.57;100106.94;5095551;28;20217;-68
2022/12/14 09:02:29;;;;;;;29.07;9.80;;;;;;;-3.86;89.73;100107.88;5095534;28;20472;-68
2022/12/14 09:04:55;;;;;;;24.37;9.13;;;;;;;-3.77;89.07;100102.31;5092366;28;20543;-69
2022/12/14 09:07:22;;;;;;;28.47;10.23;;;;;;;-3.70;88.58;100105.72;5095361;28;20981;-68
2022/12/14 09:09:48;;;;;;;15.80;9.43;;;;;;;-3.68;88.48;100101.00;5095466;28;20471;-74
2022/12/14 09:12:15;;;;;;;31.17;10.53;;;;;;;-3.67;88.67;100107.94;5093409;28;20529;-69
2022/12/14 09:14:45;;;;;;;29.90;10.87;;;;;;;-3.57;88.52;100109.03;5093825;28;20510;-69
2022/12/14 09:17:12;;;;;;;20.73;10.10;;;;;;;-3.52;88.06;100112.84;5095005;28;20999;-68
2022/12/14 09:19:40;;;;;;;23.80;11.40;;;;;;;-3.50;88.06;100097.56;5093088;28;20467;-69
2022/12/14 09:22:07;;;;;;;20.73;10.60;;;;;;;-3.46;87.96;100099.53;5092725;28;20468;-69
2022/12/14 09:24:34;;;;;;;28.57;13.07;;;;;;;-3.42;88.09;100100.72;5093747;28;20469;-69
2022/12/14 09:27:01;;;;;;;29.23;11.10;;;;;;;-3.31;88.07;100093.88;5094804;28;20440;-69
2022/12/14 09:29:28;;;;;;;23.67;10.97;;;;;;;-3.33;87.54;100099.38;5094711;28;20439;-69
2022/12/14 09:31:55;;;;;;;18.17;9.07;;;;;;;-3.25;87.40;100090.34;5094990;28;20440;-69
2022/12/14 09:34:24;;;;;;;20.60;10.10;;;;;;;-3.22;87.13;100097.84;5094919;28;20524;-69
2022/12/14 09:36:52;;;;;;;22.60;10.37;;;;;;;-3.27;86.20;100089.75;5094827;28;20571;-69
2022/12/14 09:39:18;;;;;;;21.30;10.50;;;;;;;-3.30;85.71;100080.41;5094583;28;20815;-69
2022/12/14 09:42:02;;;;;;;17.60;10.10;;;;;;;-3.26;85.12;100077.34;5094340;28;20534;-69
2022/12/14 09:44:43;;;;;;;20.73;10.27;;;;;;;-3.23;85.37;100076.88;5094773;28;20511;-68
2022/12/14 09:47:15;;;;;;;21.60;9.80;;;;;;;-3.31;85.02;100067.41;5094710;28;20437;-69
2022/12/14 09:49:46;;;;;;;18.57;9.77;;;;;;;-3.27;84.84;100067.78;5094439;28;20427;-69
2022/12/14 09:52:16;;;;;;;26.50;11.30;;;;;;;-3.25;85.33;100063.84;5094922;28;20522;-68
2022/12/14 09:54:46;;;;;;;18.40;9.90;;;;;;;-3.15;84.36;100063.31;5094206;28;21022;-68
2022/12/14 09:57:20;;;;;;;27.07;11.10;;;;;;;-3.15;84.09;100066.78;5094559;28;20447;-69
2022/12/14 09:59:47;;;;;;;27.73;11.10;;;;;;;-3.04;84.43;100065.22;5094535;28;20500;-68
2022/12/14 10:02:29;;;;;;;26.07;11.17;;;;;;;-3.05;84.13;100068.91;5094387;28;20548;-68
2022/12/14 10:05:11;;;;;;;22.27;9.67;;;;;;;-2.95;85.44;100063.88;5094143;28;20964;-68
2022/12/14 10:07:46;;;;;;;22.83;10.77;;;;;;;-2.92;86.34;100058.13;5094349;28;20428;-68
2022/12/14 10:10:22;;;;;;;22.30;9.70;;;;;;;-2.75;86.11;100052.19;5094356;28;20424;-68
2022/12/14 10:13:00;;;;;;;31.60;11.83;;;;;;;-2.62;85.83;100051.97;5094212;28;20470;-69
2022/12/14 10:15:32;;;;;;;21.03;10.47;;;;;;;-2.53;85.01;100040.00;5094109;28;20517;-68
2022/12/14 10:18:15;;;;;;;30.10;10.00;;;;;;;-2.38;83.74;100042.22;5094233;28;20425;-68
2022/12/14 10:20:51;;;;;;;21.93;10.63;;;;;;;-2.34;82.29;100038.88;5094108;28;20424;-68
2022/12/14 10:23:22;;;;;;;19.93;10.27;;;;;;;-2.27;82.54;100028.16;5093699;28;20514;-68
2022/12/14 10:25:53;;;;;;;19.73;9.87;;;;;;;-2.18;82.45;100025.97;5094083;28;20520;-69
2022/12/14 10:28:28;;;;;;;18.63;9.83;;;;;;;-2.11;82.22;100029.31;5093991;28;20432;-68
2022/12/14 10:31:01;;;;;;;34.83;11.33;;;;;;;-1.98;80.69;100023.78;5093878;28;20511;-68
2022/12/14 10:33:30;;;;;;;30.17;9.90;;;;;;;-1.90;80.58;100015.47;5093757;28;20550;-69
2022/12/14 10:36:05;;;;;;;29.07;11.00;;;;;;;-1.77;79.76;100017.06;5093769;28;20483;-69
2022/12/14 10:38:42;;;;;;;19.73;9.53;;;;;;;-1.69;79.22;100011.38;5093781;28;20503;-69
2022/12/14 10:41:18;;;;;;;21.70;9.17;;;;;;;-1.64;79.56;100008.00;5093341;28;20431;-69
2022/12/14 10:43:53;;;;;;;22.87;8.53;;;;;;;-1.61;79.21;100011.00;5093588;28;20456;-69
2022/12/14 10:46:27;;;;;;;23.63;9.60;;;;;;;-1.59;78.62;100011.59;5093545;28;20424;-69
2022/12/14 10:48:59;;;;;;;21.07;9.13;;;;;;;-1.58;78.35;100004.44;5093493;28;20412;-69
2022/12/14 10:51:30;;;;;;;21.13;10.23;;;;;;;-1.47;78.36;100011.53;5093100;28;20981;-69
2022/12/14 10:54:17;;;;;;;18.60;8.77;;;;;;;-1.44;77.65;100004.97;5092784;28;20556;-69
2022/12/14 10:56:44;;;;;;;24.20;9.87;;;;;;;-1.48;77.47;100009.94;5093407;28;20551;-69
2022/12/14 10:59:26;;;;;;;22.20;9.90;;;;;;;-1.47;78.69;100000.91;5093458;28;20870;-69
2022/12/14 11:01:59;;;;;;;21.70;9.20;;;;;;;-1.39;78.15;100003.19;5093170;28;20427;-68
2022/12/14 11:04:32;;;;;;;17.70;8.00;;;;;;;-1.22;78.15;99997.94;5093111;28;20520;-68
2022/12/14 11:07:00;;;;;;;24.53;8.00;;;;;;;-1.08;77.32;99991.28;5093365;28;20909;-69
2022/12/14 11:09:28;;;;;;;22.20;8.67;;;;;;;-1.00;76.94;99995.41;5093320;28;20515;-69
2022/12/14 11:11:58;;;;;;;19.40;8.57;;;;;;;-0.95;76.93;99982.22;5093245;28;20523;-68
2022/12/14 11:14:25;;;;;;;20.63;9.77;;;;;;;-0.85;76.43;99982.38;5093002;28;20906;-69
2022/12/14 11:16:52;;;;;;;18.97;8.60;;;;;;;-0.76;75.96;99969.50;5092913;28;21026;-69
2022/12/14 11:19:20;;;;;;;19.80;9.10;;;;;;;-0.71;76.00;99972.22;5093245;28;20527;-68
2022/12/14 11:21:48;;;;;;;18.67;8.40;;;;;;;-0.68;77.21;99957.66;5093069;28;20985;-69
2022/12/14 11:24:22;;;;;;;20.47;9.40;;;;;;;-0.63;77.16;99963.84;5092767;28;20473;-69
2022/12/14 11:26:52;;;;;;;25.17;9.30;;;;;;;-0.61;77.44;99955.66;5093351;28;20413;-69
2022/12/14 11:29:22;;;;;;;21.60;10.03;;;;;;;-0.61;76.89;99953.78;5093313;28;20463;-68
2022/12/14 11:31:51;;;;;;;19.70;8.37;;;;;;;-0.54;76.30;99957.06;5093206;28;20462;-68
2022/12/14 11:34:25;;;;;;;18.30;9.03;;;;;;;-0.50;75.25;99954.75;5093189;28;20432;-69
2022/12/14 11:36:52;;;;;;;15.17;7.57;;;;;;;-0.47;74.60;99946.28;5093198;28;20558;-69
2022/12/14 11:39:21;;;;;;;23.53;8.60;;;;;;;-0.41;73.29;99947.94;5093182;28;20523;-69